ADDS METAR Data INFO
IDs: Format: Raw Decoded Include TAF

Data at: 0931 UTC 17 Oct 2017

KMLP 170853Z AUTO VRB06KT 10SM CLR 06/M06 A3015 RMK AO2 SLP149 T00611056 58010 TSNO
KMLP 170753Z AUTO 23007KT 10SM CLR 07/M06 A3016 RMK AO2 SLP155 T00671061 400940022 TSNO
KMLP 170653Z AUTO VRB04KT 10SM CLR 06/M06 A3018 RMK AO2 SLP162 T00611056 TSNO
KMLP 170553Z AUTO VRB03KT 10SM CLR 07/M06 A3018 RMK AO2 SLP165 T00671056 10078 20061 55005 TSNO
KMLP 170453Z AUTO VRB03KT 10SM CLR 07/M06 A3018 RMK AO2 SLP181 T00671061 TSNO
KMLP 170353Z AUTO 22005KT 10SM CLR 07/M06 A3019 RMK AO2 SLP175 T00671061 TSNO
KMLP 170253Z AUTO 23005G16KT 10SM CLR 07/M06 A3020 RMK AO2 SLP178 T00721056 56006 TSNO
KMLP 170153Z AUTO 25006KT 10SM CLR 07/M06 A3020 RMK AO2 SLP182 T00671056 TSNO
KMLP 170053Z AUTO VRB04KT 10SM CLR 07/M06 A3022 RMK AO2 SLP185 T00671061 TSNO
KMLP 162353Z AUTO 23007KT 10SM CLR 08/M07 A3022 RMK AO2 SLP186 T00781067 10094 20072 57007 TSNO
KMLP 162253Z AUTO 23007KT 10SM CLR 09/M07 A3023 RMK AO2 SLP198 T00891072 TSNO
KMLP 162153Z AUTO 23006KT 10SM CLR 09/M05 A3024 RMK AO2 SLP201 T00941050 TSNO
KMLP 162053Z AUTO 25007KT 220V290 10SM CLR 09/M06 A3025 RMK AO2 SLP204 T00891061 56008 TSNO
KMLP 161953Z AUTO VRB04KT 10SM CLR 09/M06 A3025 RMK AO2 SLP206 T00891061 TSNO
KMLP 161853Z AUTO 22010G17KT 10SM CLR 08/M07 A3026 RMK AO2 SLP199 T00781067 TSNO
KMLP 161753Z AUTO 22008KT 180V240 10SM CLR 07/M07 A3028 RMK AO2 SLP204 T00721072 10072 20022 58002 TSNO
KMLP 161653Z AUTO VRB05KT 10SM CLR 06/M07 A3029 RMK AO2 SLP212 T00561072 TSNO
KMLP 161553Z AUTO 19007KT 160V230 10SM CLR 04/M07 A3028 RMK AO2 SLP211 T00441067 TSNO
KMLP 161453Z AUTO VRB06KT 10SM CLR 03/M08 A3028 RMK AO2 SLP215 T00331078 53006 TSNO
KMLP 161353Z AUTO 22007KT 10SM CLR 03/M08 A3027 RMK AO2 SLP214 T00281078 TSNO
KMLP 161253Z AUTO 23006KT 10SM CLR 03/M08 A3026 RMK AO2 SLP209 T00281078 TSNO
KMLP 161153Z AUTO 23008KT 10SM CLR 03/M08 A3026 RMK AO2 SLP207 T00281078 10039 20022 58002 TSNO
KMLP 161053Z AUTO 25008KT 10SM CLR 03/M09 A3027 RMK AO2 SLP204 T00331089 TSNO
KMLP 160953Z AUTO 22006KT 10SM CLR 03/M08 A3027 RMK AO2 SLP208 T00281078 TSNO
KMLP 160853Z AUTO 25008KT 10SM CLR 03/M08 A3027 RMK AO2 SLP207 T00331078 53000 TSNO
KMLP 160753Z AUTO 23007KT 10SM CLR 03/M07 A3027 RMK AO2 SLP211 T00331072 400611028 TSNO
KMLP 160653Z AUTO 25006KT 10SM CLR 03/M07 A3026 RMK AO2 SLP209 T00331067 TSNO
KMLP 160553Z AUTO VRB06G14KT 10SM CLR 04/M06 A3027 RMK AO2 SLP214 T00391061 10044 20028 56004 TSNO
KMLP 160453Z AUTO VRB06KT 10SM CLR 04/M06 A3028 RMK AO2 SLP219 T00391061 TSNO
KMLP 160353Z AUTO 24005KT 10SM CLR 03/M06 A3028 RMK AO2 SLP222 T00331056 TSNO
KMLP 160253Z AUTO VRB03KT 10SM CLR 04/M05 A3028 RMK AO2 SLP228 T00391050 55007 TSNO
KMLP 160153Z AUTO 22007KT 200V260 10SM CLR 03/M02 A3028 RMK AO2 SLP230 T00331022 TSNO
KMLP 160053Z AUTO 21005KT 10SM CLR 03/M02 A3030 RMK AO2 SLP235 T00331017 TSNO
KMLP 152353Z AUTO 21003KT 10SM CLR 04/M02 A3031 RMK AO2 SLP236 T00441017 10061 20017 58012 TSNO
KMLP 152253Z AUTO VRB03KT 10SM CLR 06/M02 A3033 RMK AO2 SLP237 T00611017 TSNO
KMLP 152153Z AUTO 00000KT 10SM CLR 06/M01 A3034 RMK AO2 SLP241 T00611006 TSNO